Time;durP1;ratioP1;P1;durP2;ratioP2;P2;SDS_P1;SDS_P2;PMS_P1;PMS_P2;Temp;Humidity;BMP_temperature;BMP_pressure;BME280_temperature;BME280_humidity;BME280_pressure;Samples;Min_cycle;Max_cycle;Signal;HPM_P1;HPM_P2
2021/11/09 00:00:24;;;;;;;7.15;4.85;;;;;;;15.45;71.46;101688.69;4937511;28;102511;-88
2021/11/09 00:02:52;;;;;;;7.25;5.25;;;;;;;15.46;71.37;101692.25;4935855;28;105225;-91
2021/11/09 00:05:19;;;;;;;6.07;5.13;;;;;;;15.47;71.18;101688.41;4937696;28;102272;-90
2021/11/09 00:07:59;;;;;;;5.25;4.68;;;;;;;15.47;71.35;101689.25;4953128;28;102649;-90
2021/11/09 00:10:30;;;;;;;5.63;4.93;;;;;;;15.45;71.22;101683.22;4951113;28;102269;-90
2021/11/09 00:13:02;;;;;;;5.45;4.78;;;;;;;15.46;71.24;101687.59;4949974;28;103262;-90
2021/11/09 00:15:31;;;;;;;6.75;5.00;;;;;;;15.45;71.16;101694.19;4949602;28;102453;-90
2021/11/09 00:18:00;;;;;;;5.13;4.57;;;;;;;15.45;71.54;101694.19;4972700;28;102451;-90
2021/11/09 00:20:28;;;;;;;;;;;;;;;15.46;71.40;101695.81;4956408;28;102309;-90
2021/11/09 00:22:55;;;;;;;6.55;4.75;;;;;;;15.46;71.46;101701.31;4972469;28;103128;-91
2021/11/09 00:25:23;;;;;;;6.75;5.13;;;;;;;15.46;71.43;101689.53;4972751;28;102384;-90
2021/11/09 00:27:50;;;;;;;6.22;4.95;;;;;;;15.46;71.23;101684.03;4954140;28;102232;-90
2021/11/09 00:30:21;;;;;;;6.75;5.55;;;;;;;15.46;71.47;101693.06;4953161;28;103571;-90
2021/11/09 00:32:48;;;;;;;6.53;5.45;;;;;;;15.46;70.94;101701.31;4951304;28;104288;-91
2021/11/09 00:35:19;;;;;;;5.85;5.25;;;;;;;15.46;71.59;101705.97;4972886;28;102212;-90
2021/11/09 00:37:46;;;;;;;5.93;4.85;;;;;;;15.46;71.34;101706.78;4956074;28;103933;-90
2021/11/09 00:40:15;;;;;;;5.57;4.90;;;;;;;15.45;71.49;101702.41;4954608;28;103377;-89
2021/11/09 00:42:42;;;;;;;5.85;4.80;;;;;;;15.45;71.38;101707.91;4956768;28;102728;-90
2021/11/09 00:45:11;;;;;;;5.70;4.60;;;;;;;15.46;71.20;101695.81;4958449;28;102300;-90
2021/11/09 00:47:40;;;;;;;7.88;5.75;;;;;;;15.46;71.44;101695.81;4947492;28;102376;-91
2021/11/09 00:50:09;;;;;;;6.45;4.80;;;;;;;15.46;71.41;101689.53;4939945;28;102477;-91
2021/11/09 00:52:36;;;;;;;5.88;4.90;;;;;;;15.46;71.36;101684.84;4950414;28;102577;-88
2021/11/09 00:55:04;;;;;;;5.75;4.88;;;;;;;15.47;71.18;101667.31;4959487;28;102539;-88
2021/11/09 00:57:31;;;;;;;6.17;4.50;;;;;;;15.46;71.22;101662.91;4954410;28;103612;-93
2021/11/09 00:59:59;;;;;;;5.18;4.63;;;;;;;15.47;71.62;101659.06;4945895;28;102304;-92
2021/11/09 01:02:25;;;;;;;6.63;4.93;;;;;;;15.47;71.34;101663.72;4959633;28;102832;-92
2021/11/09 01:04:53;;;;;;;4.97;4.47;;;;;;;15.47;71.24;101659.06;4941669;28;102090;-92
2021/11/09 01:07:20;;;;;;;6.13;4.87;;;;;;;15.46;71.56;101668.38;4973740;28;102461;-93
2021/11/09 01:09:46;;;;;;;5.93;5.18;;;;;;;15.47;71.53;101660.97;4950830;28;102128;-92
2021/11/09 01:12:13;;;;;;;7.03;4.78;;;;;;;15.47;71.33;101670.06;4970896;28;102776;-92
2021/11/09 01:14:41;;;;;;;6.07;4.80;;;;;;;15.47;71.57;101674.69;4955352;28;102224;-88
2021/11/09 01:17:07;;;;;;;4.88;4.47;;;;;;;15.47;71.12;101669.19;4939142;28;102565;-88
2021/11/09 01:19:35;;;;;;;5.88;4.53;;;;;;;15.46;71.03;101684.84;4964200;28;102441;-88
2021/11/09 01:22:03;;;;;;;4.55;4.15;;;;;;;15.47;71.19;101681.03;4970401;28;102752;-88
2021/11/09 01:24:30;;;;;;;5.57;4.93;;;;;;;15.47;71.42;101675.53;4976308;28;102174;-88
2021/11/09 01:26:57;;;;;;;6.40;4.40;;;;;;;15.46;71.26;101676.63;4974763;28;102628;-88
2021/11/09 01:29:24;;;;;;;5.25;4.75;;;;;;;15.47;71.25;101669.19;4957693;28;102853;-89
2021/11/09 01:31:53;;;;;;;5.30;4.80;;;;;;;15.46;71.13;101662.91;4940672;28;102700;-88
2021/11/09 01:34:21;;;;;;;4.53;4.13;;;;;;;15.47;71.07;101670.06;4956351;28;102325;-88
2021/11/09 01:36:47;;;;;;;6.00;4.93;;;;;;;15.45;70.91;101677.72;4970929;28;102257;-90
2021/11/09 01:39:16;;;;;;;5.55;4.88;;;;;;;15.46;71.24;101684.84;4954102;28;102187;-92
2021/11/09 01:41:43;;;;;;;5.37;4.63;;;;;;;15.47;71.10;101686.50;4956431;28;103502;-92
2021/11/09 01:44:14;;;;;;;5.18;4.60;;;;;;;15.48;71.20;101684.59;4952739;28;102550;-93
2021/11/09 01:46:41;;;;;;;5.93;4.50;;;;;;;15.47;71.20;101678.28;4932366;28;103012;-92
2021/11/09 01:49:08;;;;;;;5.10;4.47;;;;;;;15.47;71.19;101678.28;4938128;28;102744;-92
2021/11/09 01:51:35;;;;;;;5.63;4.70;;;;;;;15.47;71.23;101680.19;4937502;28;105060;-92
2021/11/09 01:54:07;;;;;;;6.18;4.63;;;;;;;15.47;71.16;101675.53;4946324;28;102332;-93
2021/11/09 01:56:36;;;;;;;5.15;4.65;;;;;;;15.47;71.48;101678.28;4954862;28;102229;-92
2021/11/09 01:59:06;;;;;;;5.55;4.72;;;;;;;15.47;71.05;101689.25;4954644;28;102702;-93
2021/11/09 02:01:34;;;;;;;5.65;4.60;;;;;;;15.47;71.12;101694.75;4942438;28;105185;-92
2021/11/09 02:04:03;;;;;;;4.55;4.13;;;;;;;15.46;71.00;101690.34;4958074;28;102658;-91
2021/11/09 02:06:30;;;;;;;5.63;4.72;;;;;;;15.46;70.92;101690.34;4940981;28;102134;-91
2021/11/09 02:08:59;;;;;;;5.72;4.90;;;;;;;15.48;71.39;101688.16;4936787;28;102361;-92
2021/11/09 02:11:26;;;;;;;5.10;4.50;;;;;;;15.48;71.13;101681.84;4937821;28;104153;-91
2021/11/09 02:13:56;;;;;;;5.80;5.00;;;;;;;15.47;71.23;101675.53;4955507;28;102463;-91
2021/11/09 02:16:24;;;;;;;5.63;4.70;;;;;;;15.47;71.08;101678.28;4954799;28;102460;-91
2021/11/09 02:18:50;;;;;;;5.28;4.43;;;;;;;15.48;71.52;101670.88;4949122;28;102366;-91
2021/11/09 02:41:09;;;;;;;5.45;4.55;;;;;;;15.47;71.12;101686.50;5240716;22;102668;-53
2021/11/09 02:43:53;;;;;;;4.63;4.13;;;;;;;15.46;71.35;101698.56;2767156;22;103233;-87
2021/11/09 02:46:32;;;;;;;5.95;4.78;;;;;;;15.48;71.22;101693.63;4937586;28;102129;-88
2021/11/09 02:55:12;;;;;;;6.03;5.22;;;;;;;15.47;71.47;101705.72;4947516;28;105169;-91
2021/11/09 03:08:40;;;;;;;4.97;4.57;;;;;;;15.48;71.10;101718.31;4960195;28;102684;-90
2021/11/09 03:11:12;;;;;;;5.03;4.28;;;;;;;15.47;71.33;101713.94;4940470;28;103047;-90
2021/11/09 03:13:43;;;;;;;5.78;4.78;;;;;;;15.47;71.45;101708.47;4956378;28;102497;-91
2021/11/09 03:16:13;;;;;;;5.55;4.68;;;;;;;15.48;71.69;101712.84;4952550;28;102751;-91
2021/11/09 03:18:47;;;;;;;5.57;4.97;;;;;;;15.47;71.58;101708.47;4936652;28;102485;-91
2021/11/09 03:40:32;;;;;;;6.78;4.88;;;;;;;15.48;71.39;101701.03;4970669;28;102242;-90
2021/11/09 03:46:04;;;;;;;5.40;4.90;;;;;;;15.48;71.55;101701.84;4910534;28;102410;-90
2021/11/09 03:48:32;;;;;;;6.80;5.40;;;;;;;15.48;71.21;101714.75;4906696;28;103219;-90
2021/11/09 03:51:00;;;;;;;5.70;4.78;;;;;;;15.47;71.30;101722.19;4928464;28;102447;-90
2021/11/09 03:53:29;;;;;;;6.75;4.95;;;;;;;15.48;71.67;101714.75;4952315;28;102173;-90
2021/11/09 03:56:23;;;;;;;;;;;;;;;15.48;71.15;101715.56;4952868;28;102130;-89
2021/11/09 03:58:46;;;;;;;5.65;5.05;;;;;;;15.48;71.62;101709.28;4965942;28;103261;-89
2021/11/09 04:01:18;;;;;;;5.65;5.05;;;;;;;15.48;71.43;101712.03;4951811;28;102635;-89
2021/11/09 04:09:09;;;;;;;5.40;4.70;;;;;;;15.48;71.63;101721.06;4963693;28;104136;-91
2021/11/09 04:11:56;;;;;;;5.28;4.60;;;;;;;15.48;71.62;101732.03;4970990;28;102136;-92
2021/11/09 04:17:07;;;;;;;6.18;4.85;;;;;;;15.48;71.39;101734.78;4959982;28;102323;-91
2021/11/09 05:09:00;;;;;;;7.65;6.07;;;;;;;15.47;71.62;101779.78;4965718;28;103736;-92
2021/11/09 05:11:27;;;;;;;7.75;5.55;;;;;;;15.47;71.45;101779.78;4940312;28;102258;-92
2021/11/09 05:13:54;;;;;;;7.68;5.90;;;;;;;15.47;71.35;101778.94;4943775;28;102974;-92
2021/11/09 05:16:21;;;;;;;7.20;6.15;;;;;;;15.47;71.68;101784.41;4948371;28;102252;-91
2021/11/09 05:18:48;;;;;;;6.85;6.13;;;;;;;15.46;71.49;101791.84;4949768;28;102313;-91
2021/11/09 05:21:14;;;;;;;8.32;6.13;;;;;;;15.47;71.65;101795.41;4940416;28;102203;-92
2021/11/09 05:23:42;;;;;;;6.90;5.93;;;;;;;15.47;71.73;101785.28;4951424;28;103352;-93
2021/11/09 05:26:09;;;;;;;7.22;5.88;;;;;;;15.47;71.45;101798.13;4961699;28;102090;-92
2021/11/09 05:28:36;;;;;;;7.68;6.18;;;;;;;15.47;71.53;101795.41;4950549;28;102267;-90
2021/11/09 05:31:03;;;;;;;6.78;5.93;;;;;;;15.46;71.40;101789.09;4958246;28;102210;-91
2021/11/09 05:33:32;;;;;;;7.15;6.43;;;;;;;15.46;71.53;101789.09;4973398;28;102749;-90
2021/11/09 05:36:00;;;;;;;7.15;6.07;;;;;;;15.47;71.43;101801.72;4958906;28;102440;-91
2021/11/09 05:38:32;;;;;;;7.75;6.75;;;;;;;15.47;71.43;101811.84;4954680;28;102413;-91
2021/11/09 05:41:06;;;;;;;6.38;5.75;;;;;;;15.46;71.60;101805.56;4946269;28;102443;-90
2021/11/09 05:43:35;;;;;;;6.88;6.18;;;;;;;15.47;71.33;101817.34;4972450;28;104021;-89
2021/11/09 05:46:02;;;;;;;11.50;6.77;;;;;;;15.46;71.68;101823.94;4956106;28;102412;-90
2021/11/09 05:48:29;;;;;;;6.88;6.18;;;;;;;15.47;71.29;101823.69;4953853;28;102271;-90
2021/11/09 05:50:56;;;;;;;7.93;6.95;;;;;;;15.47;71.68;101829.16;4978578;28;102183;-90
2021/11/09 05:53:22;;;;;;;6.82;6.00;;;;;;;15.48;71.75;101819.81;4960475;28;102635;-91
2021/11/09 05:55:49;;;;;;;7.05;6.30;;;;;;;15.46;71.41;101804.72;4927555;28;102476;-90
2021/11/09 05:58:16;;;;;;;8.15;6.18;;;;;;;15.47;71.80;101807.22;4969612;28;102500;-92
2021/11/09 06:00:45;;;;;;;7.60;6.72;;;;;;;15.46;71.34;101802.00;4952985;28;102850;-89
2021/11/09 06:03:12;;;;;;;7.63;6.25;;;;;;;15.46;71.29;101811.03;4970533;28;102798;-90
2021/11/09 06:05:39;;;;;;;7.75;6.53;;;;;;;15.47;71.75;101817.34;4955189;28;103736;-90
2021/11/09 06:08:05;;;;;;;8.30;6.88;;;;;;;15.46;71.78;101843.97;4965602;28;102609;-90
2021/11/09 06:28:07;;;;;;;7.97;6.18;;;;;;;15.48;71.42;101890.34;5153332;22;103494;-52
2021/11/09 06:30:44;;;;;;;7.65;6.65;;;;;;;15.47;71.30;101878.53;5203642;22;104570;-53
2021/11/09 06:47:14;;;;;;;7.68;6.53;;;;;;;15.46;71.44;101867.81;4310486;22;104054;-51
2021/11/09 07:01:30;;;;;;;7.93;6.65;;;;;;;15.45;71.68;101864.28;4877540;28;102315;-87
2021/11/09 07:03:57;;;;;;;7.65;6.45;;;;;;;15.46;71.36;101874.13;4896090;28;102272;-89
2021/11/09 07:06:26;;;;;;;9.98;6.50;;;;;;;15.46;71.18;101879.63;4880562;28;102240;-92
2021/11/09 07:08:58;;;;;;;7.75;6.53;;;;;;;15.46;71.33;101882.38;4895450;28;102814;-91
2021/11/09 07:11:31;;;;;;;6.80;6.10;;;;;;;15.46;71.06;101878.81;4884138;28;104331;-96
2021/11/09 07:16:36;;;;;;;7.03;6.32;;;;;;;15.46;71.38;101881.53;4935865;28;104477;-47
2021/11/09 07:19:07;;;;;;;7.53;6.63;;;;;;;15.47;71.84;101877.69;4926847;28;104226;-47
2021/11/09 07:21:34;;;;;;;7.30;6.43;;;;;;;15.47;71.33;101872.22;4925706;28;102475;-46
2021/11/09 07:24:01;;;;;;;11.32;6.78;;;;;;;15.46;71.15;101878.81;4930170;28;103172;-47
2021/11/09 07:26:28;;;;;;;7.05;6.35;;;;;;;15.46;71.59;101887.84;4933531;28;102388;-50
2021/11/09 07:28:56;;;;;;;7.50;6.53;;;;;;;15.46;71.56;101892.50;4926693;28;103730;-50
2021/11/09 07:31:24;;;;;;;8.30;6.50;;;;;;;15.45;71.51;101899.94;4923931;28;102489;-48
2021/11/09 07:33:52;;;;;;;8.45;6.80;;;;;;;15.46;71.19;101893.34;4930322;28;102422;-48
2021/11/09 07:36:19;;;;;;;14.65;7.00;;;;;;;15.46;71.71;101896.09;4934369;28;102096;-47
2021/11/09 07:38:46;;;;;;;7.45;6.45;;;;;;;15.46;71.53;101904.31;4915082;28;103694;-46
2021/11/09 07:41:13;;;;;;;7.57;6.78;;;;;;;15.45;71.54;101913.66;4914168;28;102135;-47
2021/11/09 07:43:40;;;;;;;7.50;6.60;;;;;;;15.46;71.48;101911.72;4905945;28;102141;-48
2021/11/09 07:46:07;;;;;;;6.90;6.20;;;;;;;15.46;71.20;101909.78;4904102;28;102196;-47
2021/11/09 07:48:33;;;;;;;7.93;6.80;;;;;;;15.45;71.24;101913.66;4907291;28;104018;-48
2021/11/09 07:51:03;;;;;;;8.80;6.72;;;;;;;15.45;71.71;101924.63;4909610;28;102078;-48
2021/11/09 07:53:33;;;;;;;8.35;6.32;;;;;;;15.46;71.64;101926.25;4912427;28;102472;-48
2021/11/09 08:06:45;;;;;;;9.38;6.68;;;;;;;15.46;71.33;101918.03;5089871;22;102796;-47
2021/11/09 08:11:43;;;;;;;8.70;6.93;;;;;;;15.47;72.12;101927.06;4931588;28;102187;-49
2021/11/09 08:14:10;;;;;;;7.72;6.60;;;;;;;15.46;71.71;101941.91;4935459;28;102216;-50
2021/11/09 08:16:49;;;;;;;8.43;6.43;;;;;;;15.46;71.70;101933.66;4938854;28;102606;-49
2021/11/09 08:19:17;;;;;;;8.35;6.90;;;;;;;15.45;71.61;101932.84;4939330;28;104050;-49
2021/11/09 08:21:46;;;;;;;8.98;6.97;;;;;;;15.46;71.31;101931.75;4937788;28;102277;-47
2021/11/09 08:24:15;;;;;;;8.90;6.53;;;;;;;15.46;71.60;101936.41;4937497;28;102898;-49
2021/11/09 08:26:42;;;;;;;10.13;6.97;;;;;;;15.46;71.40;101937.22;4928644;28;102108;-47
2021/11/09 08:29:09;;;;;;;12.05;6.80;;;;;;;15.46;71.52;101931.75;4933781;28;103829;-49
2021/11/09 08:31:38;;;;;;;8.35;6.82;;;;;;;15.46;71.14;101931.75;4936550;28;102480;-48
2021/11/09 08:34:05;;;;;;;7.78;6.05;;;;;;;15.45;71.58;101929.28;4931834;28;102434;-48
2021/11/09 08:36:32;;;;;;;9.27;6.25;;;;;;;15.46;71.78;101942.72;4916649;28;102219;-46
2021/11/09 08:39:04;;;;;;;8.32;6.28;;;;;;;15.45;71.34;101941.09;4913193;28;104191;-48
2021/11/09 08:44:27;;;;;;;32.22;7.80;;;;;;;15.46;71.65;101953.69;4904211;28;102715;-48
2021/11/09 08:46:58;;;;;;;7.28;6.55;;;;;;;15.46;71.44;101958.34;4911682;28;102289;-48
2021/11/09 08:49:29;;;;;;;10.00;7.15;;;;;;;15.46;71.47;101967.41;4908517;28;103880;-47
2021/11/09 08:51:59;;;;;;;11.10;7.25;;;;;;;15.46;71.30;101966.59;4909424;28;102248;-46
2021/11/09 08:54:33;;;;;;;7.90;6.30;;;;;;;15.45;71.24;101968.50;4915051;28;102089;-47
2021/11/09 08:57:10;;;;;;;7.75;6.50;;;;;;;15.46;71.54;101969.34;4909436;28;102204;-49
2021/11/09 09:05:13;;;;;;;9.20;7.00;;;;;;;15.46;71.45;101959.19;4917716;28;101964;-46
2021/11/09 09:07:40;;;;;;;8.65;6.45;;;;;;;15.45;71.28;101946.56;4910782;28;102269;-48
2021/11/09 09:10:13;;;;;;;9.50;6.95;;;;;;;15.45;71.34;101960.28;4917742;28;103808;-47
2021/11/09 09:12:41;;;;;;;10.18;7.25;;;;;;;15.45;71.28;101954.78;4919091;28;102381;-47
2021/11/09 09:15:10;;;;;;;8.00;6.95;;;;;;;15.45;71.57;101946.56;4910031;28;102283;-50
2021/11/09 09:17:37;;;;;;;8.57;7.03;;;;;;;15.46;71.69;101952.88;4916283;28;102145;-49
2021/11/09 09:20:11;;;;;;;8.55;6.97;;;;;;;15.46;71.26;101942.72;4917041;28;103878;-48
2021/11/09 09:22:44;;;;;;;8.57;6.88;;;;;;;15.45;71.62;101957.53;4902902;28;102102;-50
2021/11/09 09:57:27;;;;;;;10.13;6.30;;;;;;;15.44;71.81;101966.88;4908113;28;101651;-95
2021/11/09 09:59:57;;;;;;;8.65;6.90;;;;;;;15.44;71.62;101958.66;4907634;28;101725;-95
2021/11/09 10:02:26;;;;;;;10.75;6.63;;;;;;;15.44;71.38;101958.66;4906106;28;101589;-95
2021/11/09 10:04:54;;;;;;;;;;;;;;;15.44;71.39;101960.56;4891778;28;101095;-96
2021/11/09 10:07:29;;;;;;;8.52;6.60;;;;;;;15.44;71.29;101966.06;4906338;28;101893;-95
2021/11/09 10:09:57;;;;;;;8.85;6.65;;;;;;;15.44;71.30;101960.56;4905725;28;101444;-95
2021/11/09 10:12:34;;;;;;;10.80;6.85;;;;;;;15.44;71.40;101966.06;4907127;28;102789;-96
2021/11/09 10:15:06;;;;;;;8.27;6.75;;;;;;;15.44;71.28;101961.38;4905186;28;101695;-95
2021/11/09 10:17:34;;;;;;;8.32;7.22;;;;;;;15.44;71.55;101972.34;4905838;28;101893;-95
2021/11/09 10:20:11;;;;;;;7.50;6.50;;;;;;;15.44;71.52;101966.88;4908403;28;102047;-96
2021/11/09 10:22:40;;;;;;;7.63;6.47;;;;;;;15.44;71.61;101964.13;4903951;28;101749;-95
2021/11/09 10:25:10;;;;;;;8.02;6.63;;;;;;;15.43;71.40;101954.22;4894487;28;101183;-95
2021/11/09 10:27:41;;;;;;;8.27;6.78;;;;;;;15.44;71.49;101964.13;4887947;28;102090;-96
2021/11/09 10:30:12;;;;;;;9.93;7.07;;;;;;;15.44;71.43;101960.56;4889540;28;102051;-96
2021/11/09 10:32:38;;;;;;;7.05;6.35;;;;;;;15.44;71.74;101975.09;4883972;28;101717;-96
2021/11/09 10:35:07;;;;;;;9.68;7.00;;;;;;;15.43;71.12;101959.72;4881393;28;101610;-96
2021/11/09 10:37:37;;;;;;;7.60;6.38;;;;;;;15.44;71.16;101966.88;4887929;28;102182;-95
2021/11/09 10:40:06;;;;;;;8.05;6.90;;;;;;;15.43;nan;101965.22;4886016;28;101650;-92
2021/11/09 10:42:39;;;;;;;9.13;6.55;;;;;;;15.44;71.23;101960.56;4882800;28;103374;-95
2021/11/09 10:45:10;;;;;;;9.43;7.22;;;;;;;15.43;71.51;101954.22;4878397;28;101659;-96
2021/11/09 10:47:41;;;;;;;8.32;6.63;;;;;;;15.44;71.63;101955.09;4893561;28;101706;-95
2021/11/09 10:50:11;;;;;;;7.55;6.72;;;;;;;15.43;71.72;101959.72;4908141;28;101450;-95
2021/11/09 10:52:40;;;;;;;8.65;6.90;;;;;;;15.44;71.35;101955.09;4893201;28;102305;-92
2021/11/09 10:55:13;;;;;;;9.90;6.93;;;;;;;15.43;71.36;101959.72;4893355;28;102150;-91
2021/11/09 10:57:50;;;;;;;9.23;6.88;;;;;;;15.44;71.69;101975.09;4885428;28;102171;-92
2021/11/09 11:03:20;;;;;;;8.70;7.22;;;;;;;15.43;71.22;101959.72;4888055;28;103227;-92
2021/11/09 11:05:46;;;;;;;10.93;7.20;;;;;;;15.43;71.10;101970.69;4895197;28;102044;-95
2021/11/09 11:08:14;;;;;;;8.80;6.20;;;;;;;15.43;71.33;101962.47;4907541;28;101476;-94
2021/11/09 11:10:42;;;;;;;10.35;7.50;;;;;;;15.42;71.39;101958.09;4906783;28;101681;-93
2021/11/09 11:13:18;;;;;;;10.15;6.85;;;;;;;15.43;71.31;101964.38;4906504;28;102758;-94
2021/11/09 11:16:05;;;;;;;10.95;7.63;;;;;;;15.43;71.56;101978.09;4906294;28;101680;-94
2021/11/09 11:18:34;;;;;;;8.90;7.32;;;;;;;15.43;71.43;101976.19;4906410;28;101572;-96
2021/11/09 11:21:00;;;;;;;9.93;7.60;;;;;;;15.42;71.17;101971.78;4894172;28;101250;-96
2021/11/09 11:23:28;;;;;;;8.85;6.68;;;;;;;15.43;71.37;101973.44;4889355;28;102630;-95
2021/11/09 11:25:56;;;;;;;9.73;7.00;;;;;;;15.43;71.07;101973.44;4909098;28;102056;-96
2021/11/09 11:28:23;;;;;;;9.15;7.40;;;;;;;15.43;71.83;101976.19;4871002;28;102229;-91
2021/11/09 11:30:52;;;;;;;10.85;7.05;;;;;;;15.43;71.30;101980.84;4869316;28;102374;-92
2021/11/09 11:33:21;;;;;;;8.30;6.72;;;;;;;15.42;71.29;101974.53;4854977;28;102736;-92
2021/11/09 11:35:50;;;;;;;8.75;7.32;;;;;;;15.43;71.26;101965.22;4864486;28;101834;-92
2021/11/09 11:38:18;;;;;;;10.32;7.63;;;;;;;15.42;71.18;101969.06;4867813;28;102150;-92
2021/11/09 11:40:45;;;;;;;8.98;7.07;;;;;;;15.43;71.40;101965.22;4865982;28;102194;-92
2021/11/09 11:43:12;;;;;;;9.70;7.20;;;;;;;15.42;71.26;101971.78;4854161;28;102705;-92
2021/11/09 11:45:46;;;;;;;9.77;7.70;;;;;;;15.41;71.58;101983.88;4857164;29;101985;-92
2021/11/09 11:48:12;;;;;;;10.10;7.22;;;;;;;15.42;71.20;101998.41;4849899;28;102381;-91
2021/11/09 11:50:41;;;;;;;9.85;7.45;;;;;;;15.42;71.53;101996.50;4858289;29;102075;-92
2021/11/09 11:53:08;;;;;;;7.85;7.05;;;;;;;15.43;71.27;101997.31;4864370;28;102571;-92
2021/11/09 11:55:36;;;;;;;9.30;7.07;;;;;;;15.42;71.38;102001.16;4867851;28;101990;-92
2021/11/09 11:58:05;;;;;;;9.25;7.30;;;;;;;15.42;71.48;102001.97;4865802;28;101966;-92
2021/11/09 12:00:43;;;;;;;8.95;7.38;;;;;;;15.42;71.03;102001.97;4859937;28;102244;-92
2021/11/09 12:03:37;;;;;;;8.60;7.18;;;;;;;15.42;71.13;102012.94;4849357;28;102399;-91
2021/11/09 12:06:18;;;;;;;9.40;7.10;;;;;;;15.42;71.63;102010.19;4864485;29;102163;-92
2021/11/09 12:08:49;;;;;;;9.48;7.32;;;;;;;15.42;71.23;102018.44;4847141;29;102208;-92
2021/11/09 12:11:36;;;;;;;10.00;7.40;;;;;;;15.42;71.21;102021.19;4861867;28;102030;-91
2021/11/09 12:14:07;;;;;;;8.32;7.20;;;;;;;15.42;71.39;102025.84;4869622;28;102700;-93
2021/11/09 12:16:57;;;;;;;8.60;6.70;;;;;;;15.42;71.59;102034.91;4883208;28;101912;-93
2021/11/09 12:19:48;;;;;;;8.98;7.15;;;;;;;15.42;71.46;102023.91;4883708;28;101645;-92
2021/11/09 12:22:18;;;;;;;8.40;7.15;;;;;;;15.42;71.21;102023.91;4883136;28;101838;-93
2021/11/09 12:24:47;;;;;;;7.90;7.07;;;;;;;15.42;71.15;102023.09;4885817;28;102787;-93
2021/11/09 12:27:13;;;;;;;;;;;;;;;15.42;71.17;102029.41;4871906;28;102075;-93
2021/11/09 12:29:45;;;;;;;9.77;7.40;;;;;;;15.43;71.59;102019.25;4889712;28;101653;-93
2021/11/09 12:32:35;;;;;;;9.63;7.80;;;;;;;15.42;71.57;102014.88;4890473;28;102040;-94
2021/11/09 12:35:21;;;;;;;10.60;7.30;;;;;;;15.42;71.08;102018.44;4889300;28;102734;-92
2021/11/09 12:38:08;;;;;;;7.65;6.85;;;;;;;15.41;71.60;102016.78;4885906;28;101586;-93
2021/11/09 12:40:36;;;;;;;7.68;6.60;;;;;;;15.41;71.24;102019.53;4889422;28;101521;-93
2021/11/09 12:43:12;;;;;;;9.48;7.60;;;;;;;15.40;71.24;102028.88;4889350;28;102123;-93
2021/11/09 12:45:42;;;;;;;8.43;6.88;;;;;;;15.42;71.36;102053.28;4886436;28;102728;-93
2021/11/09 12:48:12;;;;;;;9.43;7.95;;;;;;;15.40;71.17;102053.56;4888122;28;101645;-93
2021/11/09 12:50:49;;;;;;;12.90;7.90;;;;;;;15.41;71.58;102055.19;4885210;28;101706;-93
2021/11/09 12:53:21;;;;;;;8.57;7.22;;;;;;;15.41;71.62;102059.88;4870880;28;101637;-93
2021/11/09 12:55:59;;;;;;;11.43;7.20;;;;;;;15.41;71.62;102060.69;4886023;28;102869;-92
2021/11/09 12:58:27;;;;;;;11.77;7.63;;;;;;;15.41;71.22;102071.66;4886488;28;101519;-93
2021/11/09 13:03:55;;;;;;;8.30;7.25;;;;;;;15.40;71.47;102081.00;4885768;28;101772;-93
2021/11/09 13:07:02;;;;;;;9.27;7.68;;;;;;;15.41;71.27;102088.13;4885691;28;102729;-93
2021/11/09 13:09:31;;;;;;;9.27;7.25;;;;;;;15.42;71.14;102095.25;4889047;28;101618;-94
2021/11/09 13:12:02;;;;;;;11.20;7.40;;;;;;;15.41;71.19;102092.78;4870335;28;101967;-93
2021/11/09 13:14:36;;;;;;;10.10;7.57;;;;;;;15.40;71.21;102094.72;4889895;28;101516;-93
2021/11/09 13:17:14;;;;;;;9.93;7.50;;;;;;;15.40;71.12;102094.72;4885335;28;102825;-93
2021/11/09 13:19:43;;;;;;;7.93;6.82;;;;;;;15.42;71.56;102105.41;4886480;28;101712;-94
2021/11/09 13:22:12;;;;;;;9.87;7.67;;;;;;;15.42;71.31;102111.72;4888631;28;102044;-93
2021/11/09 13:24:54;;;;;;;10.18;7.82;;;;;;;15.41;71.05;102118.28;4885550;28;101732;-93
2021/11/09 13:27:32;;;;;;;9.98;7.22;;;;;;;15.41;71.04;102123.78;4870428;28;102957;-93
2021/11/09 13:30:09;;;;;;;8.75;7.50;;;;;;;15.40;71.01;102130.38;4886214;28;101510;-93
2021/11/09 13:32:37;;;;;;;8.90;7.75;;;;;;;15.41;71.42;102131.19;4884460;28;101804;-93
2021/11/09 13:35:13;;;;;;;12.85;8.32;;;;;;;15.40;71.18;102124.88;4889448;28;102108;-93
2021/11/09 13:37:40;;;;;;;12.55;7.55;;;;;;;15.40;71.53;102105.69;4887225;28;102788;-94
2021/11/09 13:40:09;;;;;;;9.43;7.50;;;;;;;15.42;71.46;102117.19;4888895;28;101535;-93
2021/11/09 13:42:38;;;;;;;9.70;7.80;;;;;;;15.39;71.12;102124.03;4871652;28;101819;-94
2021/11/09 13:45:14;;;;;;;9.32;7.40;;;;;;;15.41;71.31;102126.53;4889529;28;101662;-93
2021/11/09 13:47:40;;;;;;;9.18;6.95;;;;;;;15.41;71.19;102137.50;4868083;28;102726;-93
2021/11/09 13:50:10;;;;;;;9.70;7.55;;;;;;;15.40;71.33;102146.84;4871739;28;101602;-93
2021/11/09 13:52:42;;;;;;;9.02;7.60;;;;;;;15.41;nan;102142.97;4871098;28;101707;-93
2021/11/09 13:55:10;;;;;;;11.05;7.93;;;;;;;15.39;71.26;102156.13;4888605;28;102026;-93
2021/11/09 13:57:37;;;;;;;9.10;8.17;;;;;;;15.40;71.09;102155.06;4887546;28;102732;-93
2021/11/09 14:00:18;;;;;;;8.70;7.38;;;;;;;15.40;71.06;102149.56;4871477;28;101832;-94
2021/11/09 14:02:57;;;;;;;9.27;7.80;;;;;;;15.41;71.01;102147.66;4888130;28;101558;-93
2021/11/09 14:08:40;;;;;;;11.55;7.55;;;;;;;15.41;71.37;102167.69;4884842;28;102676;-94
2021/11/09 14:14:23;;;;;;;9.63;7.57;;;;;;;15.40;70.98;102168.78;4884944;28;101503;-93
2021/11/09 14:16:58;;;;;;;11.55;7.70;;;;;;;15.40;71.61;102171.53;4886159;28;101639;-93
2021/11/09 14:19:28;;;;;;;9.25;7.78;;;;;;;15.40;71.04;102182.50;4887530;28;102713;-93
2021/11/09 14:21:56;;;;;;;10.15;7.53;;;;;;;15.41;71.10;102178.66;4887956;28;101820;-94
2021/11/09 14:24:24;;;;;;;13.93;8.30;;;;;;;15.40;71.31;102185.22;4888117;28;101546;-93
2021/11/09 14:27:03;;;;;;;10.60;8.30;;;;;;;15.41;71.20;102175.91;4871356;28;102114;-93
2021/11/09 14:29:35;;;;;;;11.60;7.63;;;;;;;15.42;71.43;102176.72;4883266;28;102843;-93
2021/11/09 14:32:05;;;;;;;10.40;7.60;;;;;;;15.41;71.13;102177.81;4884866;28;101862;-93
2021/11/09 14:34:32;;;;;;;9.35;8.02;;;;;;;15.42;71.18;102176.72;4887527;28;101563;-93
2021/11/09 14:37:19;;;;;;;10.80;7.95;;;;;;;15.40;71.31;102174.25;4888110;28;101575;-93
2021/11/09 14:39:57;;;;;;;11.27;7.97;;;;;;;15.42;71.44;102174.81;4886294;28;103948;-93
2021/11/09 14:42:40;;;;;;;9.77;8.30;;;;;;;15.40;71.39;102179.75;4887984;28;101764;-93
2021/11/09 14:47:44;;;;;;;9.98;7.50;;;;;;;15.40;71.46;102177.00;4885993;28;101808;-94
2021/11/09 14:50:15;;;;;;;;;;;;;;;15.41;71.24;102175.91;4886613;28;102806;-93
2021/11/09 14:52:43;;;;;;;10.88;7.53;;;;;;;15.40;71.01;102168.78;4887021;28;102547;-93
2021/11/09 14:55:20;;;;;;;9.73;7.70;;;;;;;15.41;71.13;102184.13;4870493;28;101885;-92
2021/11/09 14:57:49;;;;;;;9.82;7.78;;;;;;;15.40;71.39;102185.22;4885831;28;101504;-93
2021/11/09 15:00:16;;;;;;;9.20;7.47;;;;;;;15.42;71.51;102204.16;4885702;28;102719;-94
2021/11/09 15:02:44;;;;;;;9.35;7.25;;;;;;;15.41;71.54;102206.09;4864633;29;101970;-96
2021/11/09 15:05:18;;;;;;;11.82;7.50;;;;;;;15.40;71.32;102207.19;4851412;29;102143;-89
2021/11/09 15:07:59;;;;;;;11.40;8.57;;;;;;;15.40;70.95;102215.41;4867504;29;102677;-88
2021/11/09 15:29:59;;;;;;;9.68;7.60;;;;;;;15.40;71.66;102248.34;4884602;28;101842;-88
2021/11/09 15:32:35;;;;;;;9.07;7.75;;;;;;;15.41;71.23;102257.38;4884689;28;102812;-89
2021/11/09 15:37:38;;;;;;;9.95;8.35;;;;;;;15.39;71.35;102266.69;4888590;28;101976;-91
2021/11/09 15:40:10;;;;;;;12.10;8.15;;;;;;;15.40;71.21;102267.53;4887829;28;101880;-93
2021/11/09 15:42:37;;;;;;;9.30;8.10;;;;;;;15.39;71.50;102277.66;4866593;28;102254;-92
2021/11/09 15:45:06;;;;;;;11.75;8.32;;;;;;;15.40;71.57;102286.75;4887175;28;101662;-92